Grand Princess — ZCBU5 — position and weather

sailwx.info

Track history (hours):
 
Tides and Currents Weather Stations Pressure Air Temp Water Temp Dewpoint Dewpoint Depression Visibility Wind Speed Wind Dir Waves Ship Positions

Grand Princess

Operator: Princess Cruises

Last reported at 2017-Feb-19 10:31 UTC. Time now 2017-Feb-24 08:20 UTC.
Position N 35°30' W 121°40'.

Length 289.5 m; beam 36 m; draft 8.5 m.

Type: Ship. MMSI: 310327000.

Date/timePositionNaut miles runAvg speedWind from/ knotsBaromVisibWave heightAir tempDewpointWater temp
2017-Feb-19 10:31N 35°30' W 121°40'1616.6
2017-Feb-19 09:34N 35°45' W 121°49'1616.5
2017-Feb-19 08:34N 35°60' W 121°58'1716.5
2017-Feb-19 07:33N 36°15' W 122°06'1616.5
2017-Feb-19 06:33N 36°30' W 122°15'1616.4
2017-Feb-19 05:33N 36°45' W 122°23'1616.0
2017-Feb-19 04:33N 36°59' W 122°32'1916.4
2017-Feb-19 03:22N 37°17' W 122°42'1417.0
2017-Feb-19 02:33N 37°30' W 122°43'1414.5
2017-Feb-19 01:33N 37°45' W 122°40'1313.3
2017-Feb-19 00:34N 37°49' W 122°24'1 0.5
2017-Feb-18 23:33N 37°48' W 122°24'0 0.0
2017-Feb-18 22:32N 37°48' W 122°24'0 0.0
2017-Feb-18 21:30N 37°48' W 122°24'0 0.0
2017-Feb-18 20:30N 37°48' W 122°24'0 0.0
2017-Feb-18 19:32N 37°48' W 122°24'0 0.0
2017-Feb-18 18:32N 37°48' W 122°24'0 0.0
2017-Feb-18 17:31N 37°48' W 122°24'0 0.0
2017-Feb-18 16:31N 37°48' W 122°24'0 0.0
2017-Feb-18 15:33N 37°48' W 122°24'0 0.1
2017-Feb-18 14:34N 37°48' W 122°24'8 7.8
2017-Feb-18 13:33N 37°47' W 122°34'10 9.7
2017-Feb-18 12:33N 37°39' W 122°40'1312.6
2017-Feb-18 11:33N 37°26' W 122°40'1312.2
2017-Feb-18 10:30N 37°14' W 122°37'1111.8
2017-Feb-18 09:33N 37°03' W 122°31'1211.8
2017-Feb-18 08:33N 36°53' W 122°25'1312.8
2017-Feb-18 07:33N 36°41' W 122°18'1212.2
2017-Feb-18 06:33N 36°30' W 122°12'1211.8
2017-Feb-18 05:33N 36°19' W 122°06'1212.2
2017-Feb-18 04:33N 36°08' W 122°00'1312.8
2017-Feb-18 03:33N 35°56' W 121°54'1313.2
2017-Feb-18 02:33N 35°44' W 121°48'1514.2
2017-Feb-18 01:31N 35°31' W 121°40'19214.8
2017-Feb-17 12:31N 33°16' W 118°54'1717.3
2017-Feb-17 11:33N 33°08' W 118°37'1717.3
2017-Feb-17 10:33N 32°59' W 118°19'1817.5
2017-Feb-17 09:33N 32°48' W 118°03'1717.2
2017-Feb-17 08:34N 32°36' W 117°48'1919.5
2017-Feb-17 07:33N 32°20' W 117°36'1919.2
2017-Feb-17 06:33N 32°06' W 117°20'2119.4
2017-Feb-17 05:27N 31°56' W 116°57'12 1.6
2017-Feb-16 21:32N 31°44' W 116°55'1917.3
2017-Feb-16 20:27N 31°36' W 117°15'1517.4
2017-Feb-16 19:34N 31°30' W 117°31'1717.2
2017-Feb-16 18:34N 31°24' W 117°50'1717.3
2017-Feb-16 17:33N 31°17' W 118°09'1717.2
2017-Feb-16 16:33N 31°10' W 118°27'1717.0
2017-Feb-16 15:34N 31°05' W 118°46'1717.5
2017-Feb-16 14:34N 31°00' W 119°06'1717.4
2017-Feb-16 13:34N 30°56' W 119°25'2219.8
2017-Feb-16 12:27N 30°51' W 119°50'1820.2
2017-Feb-16 11:33N 30°46' W 120°11'8120.3
2017-Feb-16 07:33N 30°26' W 121°42'2020.0
2017-Feb-16 06:33N 30°21' W 122°04'1919.5
2017-Feb-16 05:33N 30°17' W 122°26'2019.7
2017-Feb-16 04:33N 30°12' W 122°48'2019.7
2017-Feb-16 03:32N 30°07' W 123°11'4019.8
2017-Feb-16 01:31N 29°57' W 123°56'4219.6
2017-Feb-15 23:21N 29°47' W 124°43'1819.7
2017-Feb-15 22:27N 29°42' W 125°03'2319.8
2017-Feb-15 21:18N 29°37' W 125°28'1919.7
2017-Feb-15 20:21N 29°32' W 125°49'2319.8
2017-Feb-15 19:10N 29°26' W 126°15'1720.2
2017-Feb-15 18:20N 29°22' W 126°34'1720.0
2017-Feb-15 17:28N 29°18' W 126°53'8420.4
2017-Feb-15 13:22N 28°58' W 128°26'1920.5
2017-Feb-15 12:28N 28°53' W 128°46'  
Track history (hours):
 
Tides and Currents Weather Stations Pressure Air Temp Water Temp Dewpoint Dewpoint Depression Visibility Wind Speed Wind Dir Waves Ship Positions

Grand Princess

Operator: Princess Cruises

Last reported at 2017-Feb-19 10:31 UTC. Time now 2017-Feb-24 08:20 UTC.
Position N 35°30' W 121°40'.

Length 289.5 m; beam 36 m; draft 8.5 m.

Type: Ship. MMSI: 310327000.

Date/timePositionNaut miles runAvg speedWind from/ knotsBaromVisibWave heightAir tempDewpointWater temp
2017-Feb-19 10:31N 35°30' W 121°40'1616.6
2017-Feb-19 09:34N 35°45' W 121°49'1616.5
2017-Feb-19 08:34N 35°60' W 121°58'1716.5
2017-Feb-19 07:33N 36°15' W 122°06'1616.5
2017-Feb-19 06:33N 36°30' W 122°15'1616.4
2017-Feb-19 05:33N 36°45' W 122°23'1616.0
2017-Feb-19 04:33N 36°59' W 122°32'1916.4
2017-Feb-19 03:22N 37°17' W 122°42'1417.0
2017-Feb-19 02:33N 37°30' W 122°43'1414.5
2017-Feb-19 01:33N 37°45' W 122°40'1313.3
2017-Feb-19 00:34N 37°49' W 122°24'1 0.5
2017-Feb-18 23:33N 37°48' W 122°24'0 0.0
2017-Feb-18 22:32N 37°48' W 122°24'0 0.0
2017-Feb-18 21:30N 37°48' W 122°24'0 0.0
2017-Feb-18 20:30N 37°48' W 122°24'0 0.0
2017-Feb-18 19:32N 37°48' W 122°24'0 0.0
2017-Feb-18 18:32N 37°48' W 122°24'0 0.0
2017-Feb-18 17:31N 37°48' W 122°24'0 0.0
2017-Feb-18 16:31N 37°48' W 122°24'0 0.0
2017-Feb-18 15:33N 37°48' W 122°24'0 0.1
2017-Feb-18 14:34N 37°48' W 122°24'8 7.8
2017-Feb-18 13:33N 37°47' W 122°34'10 9.7
2017-Feb-18 12:33N 37°39' W 122°40'1312.6
2017-Feb-18 11:33N 37°26' W 122°40'1312.2
2017-Feb-18 10:30N 37°14' W 122°37'1111.8
2017-Feb-18 09:33N 37°03' W 122°31'1211.8
2017-Feb-18 08:33N 36°53' W 122°25'1312.8
2017-Feb-18 07:33N 36°41' W 122°18'1212.2
2017-Feb-18 06:33N 36°30' W 122°12'1211.8
2017-Feb-18 05:33N 36°19' W 122°06'1212.2
2017-Feb-18 04:33N 36°08' W 122°00'1312.8
2017-Feb-18 03:33N 35°56' W 121°54'1313.2
2017-Feb-18 02:33N 35°44' W 121°48'1514.2
2017-Feb-18 01:31N 35°31' W 121°40'19214.8
2017-Feb-17 12:31N 33°16' W 118°54'1717.3
2017-Feb-17 11:33N 33°08' W 118°37'1717.3
2017-Feb-17 10:33N 32°59' W 118°19'1817.5
2017-Feb-17 09:33N 32°48' W 118°03'1717.2
2017-Feb-17 08:34N 32°36' W 117°48'1919.5
2017-Feb-17 07:33N 32°20' W 117°36'1919.2
2017-Feb-17 06:33N 32°06' W 117°20'2119.4
2017-Feb-17 05:27N 31°56' W 116°57'12 1.6
2017-Feb-16 21:32N 31°44' W 116°55'1917.3
2017-Feb-16 20:27N 31°36' W 117°15'1517.4
2017-Feb-16 19:34N 31°30' W 117°31'1717.2
2017-Feb-16 18:34N 31°24' W 117°50'1717.3
2017-Feb-16 17:33N 31°17' W 118°09'1717.2
2017-Feb-16 16:33N 31°10' W 118°27'1717.0
2017-Feb-16 15:34N 31°05' W 118°46'1717.5
2017-Feb-16 14:34N 31°00' W 119°06'1717.4
2017-Feb-16 13:34N 30°56' W 119°25'2219.8
2017-Feb-16 12:27N 30°51' W 119°50'1820.2
2017-Feb-16 11:33N 30°46' W 120°11'8120.3
2017-Feb-16 07:33N 30°26' W 121°42'2020.0
2017-Feb-16 06:33N 30°21' W 122°04'1919.5
2017-Feb-16 05:33N 30°17' W 122°26'2019.7
2017-Feb-16 04:33N 30°12' W 122°48'2019.7
2017-Feb-16 03:32N 30°07' W 123°11'4019.8
2017-Feb-16 01:31N 29°57' W 123°56'4219.6
2017-Feb-15 23:21N 29°47' W 124°43'1819.7
2017-Feb-15 22:27N 29°42' W 125°03'2319.8
2017-Feb-15 21:18N 29°37' W 125°28'1919.7
2017-Feb-15 20:21N 29°32' W 125°49'2319.8
2017-Feb-15 19:10N 29°26' W 126°15'1720.2
2017-Feb-15 18:20N 29°22' W 126°34'1720.0
2017-Feb-15 17:28N 29°18' W 126°53'8420.4
2017-Feb-15 13:22N 28°58' W 128°26'1920.5
2017-Feb-15 12:28N 28°53' W 128°46'  

Dump ship's entire track history